sensor_id;sensor_type;location;lat;lon;timestamp;temperature;humidity
23160;DHT22;11748;50.844;4.396;2023-04-06T00:01:07;11.00;89.90
23160;DHT22;11748;50.844;4.396;2023-04-06T00:03:33;10.90;89.60
23160;DHT22;11748;50.844;4.396;2023-04-06T00:05:59;10.90;89.50
23160;DHT22;11748;50.844;4.396;2023-04-06T00:08:26;11.00;89.50
23160;DHT22;11748;50.844;4.396;2023-04-06T00:10:52;10.90;89.40
23160;DHT22;11748;50.844;4.396;2023-04-06T00:13:18;10.80;89.70
23160;DHT22;11748;50.844;4.396;2023-04-06T00:15:43;10.90;89.70
23160;DHT22;11748;50.844;4.396;2023-04-06T00:18:12;10.80;89.80
23160;DHT22;11748;50.844;4.396;2023-04-06T00:20:38;10.80;89.90
23160;DHT22;11748;50.844;4.396;2023-04-06T00:23:04;10.80;89.90
23160;DHT22;11748;50.844;4.396;2023-04-06T00:25:30;10.80;90.00
23160;DHT22;11748;50.844;4.396;2023-04-06T00:27:56;10.80;90.00
23160;DHT22;11748;50.844;4.396;2023-04-06T00:30:21;10.80;90.10
23160;DHT22;11748;50.844;4.396;2023-04-06T00:32:47;10.70;90.20
23160;DHT22;11748;50.844;4.396;2023-04-06T00:35:13;10.70;90.20
23160;DHT22;11748;50.844;4.396;2023-04-06T00:37:40;10.80;90.20
23160;DHT22;11748;50.844;4.396;2023-04-06T00:40:06;10.80;90.60
23160;DHT22;11748;50.844;4.396;2023-04-06T00:42:32;10.70;90.40
23160;DHT22;11748;50.844;4.396;2023-04-06T00:44:59;10.70;90.30
23160;DHT22;11748;50.844;4.396;2023-04-06T00:47:26;10.70;90.40
23160;DHT22;11748;50.844;4.396;2023-04-06T00:49:53;10.70;90.60
23160;DHT22;11748;50.844;4.396;2023-04-06T00:52:19;10.60;90.70
23160;DHT22;11748;50.844;4.396;2023-04-06T00:54:45;10.70;90.60
23160;DHT22;11748;50.844;4.396;2023-04-06T00:57:14;10.80;90.50
23160;DHT22;11748;50.844;4.396;2023-04-06T00:59:40;10.90;90.50
23160;DHT22;11748;50.844;4.396;2023-04-06T01:02:06;10.70;90.60
23160;DHT22;11748;50.844;4.396;2023-04-06T01:04:34;10.50;90.80
23160;DHT22;11748;50.844;4.396;2023-04-06T01:07:00;10.60;90.80
23160;DHT22;11748;50.844;4.396;2023-04-06T01:09:29;10.60;90.80
23160;DHT22;11748;50.844;4.396;2023-04-06T01:11:56;10.70;90.70
23160;DHT22;11748;50.844;4.396;2023-04-06T01:14:23;10.70;90.70
23160;DHT22;11748;50.844;4.396;2023-04-06T01:16:49;10.50;90.80
23160;DHT22;11748;50.844;4.396;2023-04-06T01:19:15;10.60;90.80
23160;DHT22;11748;50.844;4.396;2023-04-06T01:21:41;10.70;90.80
23160;DHT22;11748;50.844;4.396;2023-04-06T01:24:07;10.70;90.60
23160;DHT22;11748;50.844;4.396;2023-04-06T01:26:34;10.70;90.50
23160;DHT22;11748;50.844;4.396;2023-04-06T01:29:01;10.70;90.40
23160;DHT22;11748;50.844;4.396;2023-04-06T01:31:27;10.70;90.40
23160;DHT22;11748;50.844;4.396;2023-04-06T01:33:53;10.80;90.50
23160;DHT22;11748;50.844;4.396;2023-04-06T01:36:19;10.70;90.50
23160;DHT22;11748;50.844;4.396;2023-04-06T01:38:45;10.70;90.60
23160;DHT22;11748;50.844;4.396;2023-04-06T01:41:11;10.70;90.60
23160;DHT22;11748;50.844;4.396;2023-04-06T01:43:37;10.60;90.60
23160;DHT22;11748;50.844;4.396;2023-04-06T01:46:03;10.70;90.60
23160;DHT22;11748;50.844;4.396;2023-04-06T01:48:29;10.60;90.60
23160;DHT22;11748;50.844;4.396;2023-04-06T01:50:55;10.60;90.70
23160;DHT22;11748;50.844;4.396;2023-04-06T01:53:21;10.70;90.70
23160;DHT22;11748;50.844;4.396;2023-04-06T01:55:46;10.60;90.60
23160;DHT22;11748;50.844;4.396;2023-04-06T01:58:13;10.60;90.60
23160;DHT22;11748;50.844;4.396;2023-04-06T02:00:39;10.60;90.70
23160;DHT22;11748;50.844;4.396;2023-04-06T02:03:05;10.60;90.70
23160;DHT22;11748;50.844;4.396;2023-04-06T02:05:31;10.50;90.80
23160;DHT22;11748;50.844;4.396;2023-04-06T02:08:06;10.50;90.90
23160;DHT22;11748;50.844;4.396;2023-04-06T02:10:33;10.50;90.90
23160;DHT22;11748;50.844;4.396;2023-04-06T02:12:59;10.50;91.00
23160;DHT22;11748;50.844;4.396;2023-04-06T02:15:25;10.50;91.00
23160;DHT22;11748;50.844;4.396;2023-04-06T02:17:51;10.40;91.10
23160;DHT22;11748;50.844;4.396;2023-04-06T02:20:17;10.40;91.20
23160;DHT22;11748;50.844;4.396;2023-04-06T02:22:43;10.40;91.20
23160;DHT22;11748;50.844;4.396;2023-04-06T02:25:09;10.40;91.20
23160;DHT22;11748;50.844;4.396;2023-04-06T02:27:35;10.30;91.40
23160;DHT22;11748;50.844;4.396;2023-04-06T02:30:02;10.30;91.40
23160;DHT22;11748;50.844;4.396;2023-04-06T02:32:28;10.40;91.30
23160;DHT22;11748;50.844;4.396;2023-04-06T02:34:53;10.30;91.20
23160;DHT22;11748;50.844;4.396;2023-04-06T02:37:20;10.40;91.30
23160;DHT22;11748;50.844;4.396;2023-04-06T02:39:46;10.30;91.30
23160;DHT22;11748;50.844;4.396;2023-04-06T02:42:12;10.20;91.40
23160;DHT22;11748;50.844;4.396;2023-04-06T02:44:37;10.30;91.40
23160;DHT22;11748;50.844;4.396;2023-04-06T02:47:03;10.20;91.40
23160;DHT22;11748;50.844;4.396;2023-04-06T02:49:29;10.30;91.40
23160;DHT22;11748;50.844;4.396;2023-04-06T02:51:55;10.30;91.40
23160;DHT22;11748;50.844;4.396;2023-04-06T02:54:20;10.30;91.50
23160;DHT22;11748;50.844;4.396;2023-04-06T02:56:46;10.20;91.50
23160;DHT22;11748;50.844;4.396;2023-04-06T02:59:12;10.20;91.50
23160;DHT22;11748;50.844;4.396;2023-04-06T03:01:37;10.20;91.90
23160;DHT22;11748;50.844;4.396;2023-04-06T03:04:03;10.20;91.60
23160;DHT22;11748;50.844;4.396;2023-04-06T03:06:29;10.20;91.60
23160;DHT22;11748;50.844;4.396;2023-04-06T03:08:55;10.20;91.60
23160;DHT22;11748;50.844;4.396;2023-04-06T03:11:21;10.20;91.60
23160;DHT22;11748;50.844;4.396;2023-04-06T03:13:47;10.20;91.60
23160;DHT22;11748;50.844;4.396;2023-04-06T03:16:12;10.10;91.80
23160;DHT22;11748;50.844;4.396;2023-04-06T03:18:38;10.10;91.90
23160;DHT22;11748;50.844;4.396;2023-04-06T03:21:04;10.00;92.00
23160;DHT22;11748;50.844;4.396;2023-04-06T03:23:30;10.10;92.00
23160;DHT22;11748;50.844;4.396;2023-04-06T03:25:56;10.10;92.10
23160;DHT22;11748;50.844;4.396;2023-04-06T03:28:22;10.00;92.10
23160;DHT22;11748;50.844;4.396;2023-04-06T03:30:48;10.00;92.10
23160;DHT22;11748;50.844;4.396;2023-04-06T03:33:14;10.10;92.10
23160;DHT22;11748;50.844;4.396;2023-04-06T03:35:40;10.10;92.10
23160;DHT22;11748;50.844;4.396;2023-04-06T03:38:06;10.00;92.20
23160;DHT22;11748;50.844;4.396;2023-04-06T03:40:31;10.00;92.20
23160;DHT22;11748;50.844;4.396;2023-04-06T03:42:57;10.00;92.30
23160;DHT22;11748;50.844;4.396;2023-04-06T03:45:23;10.00;92.20
23160;DHT22;11748;50.844;4.396;2023-04-06T03:47:49;10.00;92.10
23160;DHT22;11748;50.844;4.396;2023-04-06T03:50:15;10.00;92.20
23160;DHT22;11748;50.844;4.396;2023-04-06T03:52:41;10.00;92.20
23160;DHT22;11748;50.844;4.396;2023-04-06T03:55:07;10.00;92.30
23160;DHT22;11748;50.844;4.396;2023-04-06T03:57:33;10.00;92.30
23160;DHT22;11748;50.844;4.396;2023-04-06T03:59:58;10.00;92.30
23160;DHT22;11748;50.844;4.396;2023-04-06T04:02:25;10.00;92.40
23160;DHT22;11748;50.844;4.396;2023-04-06T04:04:50;10.10;92.40
23160;DHT22;11748;50.844;4.396;2023-04-06T04:07:16;10.10;92.40
23160;DHT22;11748;50.844;4.396;2023-04-06T04:09:42;10.10;92.50
23160;DHT22;11748;50.844;4.396;2023-04-06T04:12:07;10.10;92.50
23160;DHT22;11748;50.844;4.396;2023-04-06T04:14:33;10.10;92.60
23160;DHT22;11748;50.844;4.396;2023-04-06T04:16:59;9.70;93.10
23160;DHT22;11748;50.844;4.396;2023-04-06T04:19:25;9.50;93.40
23160;DHT22;11748;50.844;4.396;2023-04-06T04:21:50;9.60;93.50
23160;DHT22;11748;50.844;4.396;2023-04-06T04:24:16;9.80;93.40
23160;DHT22;11748;50.844;4.396;2023-04-06T04:26:42;9.90;93.30
23160;DHT22;11748;50.844;4.396;2023-04-06T04:29:07;9.90;93.20
23160;DHT22;11748;50.844;4.396;2023-04-06T04:31:33;10.10;93.10
23160;DHT22;11748;50.844;4.396;2023-04-06T04:33:59;10.10;93.00
23160;DHT22;11748;50.844;4.396;2023-04-06T04:36:26;10.10;93.10
23160;DHT22;11748;50.844;4.396;2023-04-06T04:38:54;9.90;93.40
23160;DHT22;11748;50.844;4.396;2023-04-06T04:41:20;9.60;93.80
23160;DHT22;11748;50.844;4.396;2023-04-06T04:43:46;9.80;93.80
23160;DHT22;11748;50.844;4.396;2023-04-06T04:46:12;10.00;93.70
23160;DHT22;11748;50.844;4.396;2023-04-06T04:48:38;10.10;93.50
23160;DHT22;11748;50.844;4.396;2023-04-06T04:51:04;10.20;93.50
23160;DHT22;11748;50.844;4.396;2023-04-06T04:53:30;10.10;93.60
23160;DHT22;11748;50.844;4.396;2023-04-06T04:55:56;10.20;93.60
23160;DHT22;11748;50.844;4.396;2023-04-06T04:58:22;10.30;93.60
23160;DHT22;11748;50.844;4.396;2023-04-06T05:00:48;10.30;93.60
23160;DHT22;11748;50.844;4.396;2023-04-06T05:03:26;10.30;93.50
23160;DHT22;11748;50.844;4.396;2023-04-06T05:05:52;10.40;93.60
23160;DHT22;11748;50.844;4.396;2023-04-06T05:08:18;10.30;93.70
23160;DHT22;11748;50.844;4.396;2023-04-06T05:10:44;10.20;93.90
23160;DHT22;11748;50.844;4.396;2023-04-06T05:13:11;10.20;94.10
23160;DHT22;11748;50.844;4.396;2023-04-06T05:15:37;10.30;94.00
23160;DHT22;11748;50.844;4.396;2023-04-06T05:18:07;10.20;94.20
23160;DHT22;11748;50.844;4.396;2023-04-06T05:20:34;10.20;94.30
23160;DHT22;11748;50.844;4.396;2023-04-06T05:23:00;10.10;94.40
23160;DHT22;11748;50.844;4.396;2023-04-06T05:25:26;10.20;94.30
23160;DHT22;11748;50.844;4.396;2023-04-06T05:27:52;10.30;94.40
23160;DHT22;11748;50.844;4.396;2023-04-06T05:30:18;10.10;94.60
23160;DHT22;11748;50.844;4.396;2023-04-06T05:32:44;10.10;94.60
23160;DHT22;11748;50.844;4.396;2023-04-06T05:35:12;10.20;94.60
23160;DHT22;11748;50.844;4.396;2023-04-06T05:37:38;10.10;94.90
23160;DHT22;11748;50.844;4.396;2023-04-06T05:40:04;9.90;95.20
23160;DHT22;11748;50.844;4.396;2023-04-06T05:42:39;9.80;95.60
23160;DHT22;11748;50.844;4.396;2023-04-06T05:45:07;9.90;95.60
23160;DHT22;11748;50.844;4.396;2023-04-06T05:47:33;9.80;95.60
23160;DHT22;11748;50.844;4.396;2023-04-06T05:49:59;10.10;95.70
23160;DHT22;11748;50.844;4.396;2023-04-06T05:52:25;10.10;95.60
23160;DHT22;11748;50.844;4.396;2023-04-06T05:54:51;10.00;95.80
23160;DHT22;11748;50.844;4.396;2023-04-06T05:57:17;10.10;95.90
23160;DHT22;11748;50.844;4.396;2023-04-06T05:59:43;9.80;96.40
23160;DHT22;11748;50.844;4.396;2023-04-06T06:02:08;9.90;96.30
23160;DHT22;11748;50.844;4.396;2023-04-06T06:04:34;10.00;96.20
23160;DHT22;11748;50.844;4.396;2023-04-06T06:07:00;9.80;96.60
23160;DHT22;11748;50.844;4.396;2023-04-06T06:09:26;9.80;96.60
23160;DHT22;11748;50.844;4.396;2023-04-06T06:11:52;9.70;97.10
23160;DHT22;11748;50.844;4.396;2023-04-06T06:14:18;9.80;96.80
23160;DHT22;11748;50.844;4.396;2023-04-06T06:16:43;9.90;96.70
23160;DHT22;11748;50.844;4.396;2023-04-06T06:19:09;9.90;96.80
23160;DHT22;11748;50.844;4.396;2023-04-06T06:21:35;9.90;96.90
23160;DHT22;11748;50.844;4.396;2023-04-06T06:24:01;10.10;96.80
23160;DHT22;11748;50.844;4.396;2023-04-06T06:26:27;10.10;96.90
23160;DHT22;11748;50.844;4.396;2023-04-06T06:28:53;9.80;97.30
23160;DHT22;11748;50.844;4.396;2023-04-06T06:31:19;9.80;97.90
23160;DHT22;11748;50.844;4.396;2023-04-06T06:33:48;9.80;98.60
23160;DHT22;11748;50.844;4.396;2023-04-06T06:36:17;10.00;99.00
23160;DHT22;11748;50.844;4.396;2023-04-06T06:38:44;10.10;99.70
23160;DHT22;11748;50.844;4.396;2023-04-06T06:41:10;10.10;99.90
23160;DHT22;11748;50.844;4.396;2023-04-06T06:43:36;10.10;99.90
23160;DHT22;11748;50.844;4.396;2023-04-06T06:46:02;10.20;99.90
23160;DHT22;11748;50.844;4.396;2023-04-06T06:48:29;10.30;99.90
23160;DHT22;11748;50.844;4.396;2023-04-06T06:50:56;10.10;99.90
23160;DHT22;11748;50.844;4.396;2023-04-06T06:53:23;10.20;99.90
23160;DHT22;11748;50.844;4.396;2023-04-06T06:55:48;10.30;99.90
23160;DHT22;11748;50.844;4.396;2023-04-06T06:58:15;10.50;99.90
23160;DHT22;11748;50.844;4.396;2023-04-06T07:00:41;10.60;99.90
23160;DHT22;11748;50.844;4.396;2023-04-06T07:03:06;10.60;99.90
23160;DHT22;11748;50.844;4.396;2023-04-06T07:05:32;10.60;99.90
23160;DHT22;11748;50.844;4.396;2023-04-06T07:07:58;10.70;99.90
23160;DHT22;11748;50.844;4.396;2023-04-06T07:10:24;10.40;99.90
23160;DHT22;11748;50.844;4.396;2023-04-06T07:12:50;10.40;99.90
23160;DHT22;11748;50.844;4.396;2023-04-06T07:15:16;10.50;99.90
23160;DHT22;11748;50.844;4.396;2023-04-06T07:17:42;10.60;99.90
23160;DHT22;11748;50.844;4.396;2023-04-06T07:20:10;10.80;99.90
23160;DHT22;11748;50.844;4.396;2023-04-06T07:22:37;10.80;99.90
23160;DHT22;11748;50.844;4.396;2023-04-06T07:25:03;10.80;99.90
23160;DHT22;11748;50.844;4.396;2023-04-06T07:27:29;10.80;99.90
23160;DHT22;11748;50.844;4.396;2023-04-06T07:29:55;10.90;99.90
23160;DHT22;11748;50.844;4.396;2023-04-06T07:32:21;10.90;99.90
23160;DHT22;11748;50.844;4.396;2023-04-06T07:34:46;10.90;99.90
23160;DHT22;11748;50.844;4.396;2023-04-06T07:37:12;11.00;99.90
23160;DHT22;11748;50.844;4.396;2023-04-06T07:39:38;11.00;99.90
23160;DHT22;11748;50.844;4.396;2023-04-06T07:42:04;11.00;99.90
23160;DHT22;11748;50.844;4.396;2023-04-06T07:44:29;10.90;99.90
23160;DHT22;11748;50.844;4.396;2023-04-06T07:46:56;10.90;99.90
23160;DHT22;11748;50.844;4.396;2023-04-06T07:49:22;10.90;99.90
23160;DHT22;11748;50.844;4.396;2023-04-06T07:51:48;10.90;99.90
23160;DHT22;11748;50.844;4.396;2023-04-06T07:54:14;11.00;99.90
23160;DHT22;11748;50.844;4.396;2023-04-06T07:56:40;11.00;99.90
23160;DHT22;11748;50.844;4.396;2023-04-06T07:59:06;11.10;99.90
23160;DHT22;11748;50.844;4.396;2023-04-06T08:01:32;11.10;99.90
23160;DHT22;11748;50.844;4.396;2023-04-06T08:03:58;11.00;99.90
23160;DHT22;11748;50.844;4.396;2023-04-06T08:06:24;11.00;99.90
23160;DHT22;11748;50.844;4.396;2023-04-06T08:08:50;11.00;99.90
23160;DHT22;11748;50.844;4.396;2023-04-06T08:11:16;11.00;99.90
23160;DHT22;11748;50.844;4.396;2023-04-06T08:13:42;10.90;99.90
23160;DHT22;11748;50.844;4.396;2023-04-06T08:16:08;10.80;99.90
23160;DHT22;11748;50.844;4.396;2023-04-06T08:18:33;10.90;99.90
23160;DHT22;11748;50.844;4.396;2023-04-06T08:20:59;10.90;99.90
23160;DHT22;11748;50.844;4.396;2023-04-06T08:23:25;10.90;99.90
23160;DHT22;11748;50.844;4.396;2023-04-06T08:25:51;10.90;99.90
23160;DHT22;11748;50.844;4.396;2023-04-06T08:28:20;10.90;99.90
23160;DHT22;11748;50.844;4.396;2023-04-06T08:30:46;10.90;99.90
23160;DHT22;11748;50.844;4.396;2023-04-06T08:33:12;10.90;99.90
23160;DHT22;11748;50.844;4.396;2023-04-06T08:35:38;10.90;99.90
23160;DHT22;11748;50.844;4.396;2023-04-06T08:38:04;10.80;99.90
23160;DHT22;11748;50.844;4.396;2023-04-06T08:40:35;10.70;99.90
23160;DHT22;11748;50.844;4.396;2023-04-06T08:43:02;10.80;99.90
23160;DHT22;11748;50.844;4.396;2023-04-06T08:45:29;10.90;99.90
23160;DHT22;11748;50.844;4.396;2023-04-06T08:47:57;10.80;99.90
23160;DHT22;11748;50.844;4.396;2023-04-06T08:50:24;10.80;99.90
23160;DHT22;11748;50.844;4.396;2023-04-06T08:52:51;10.90;99.90
23160;DHT22;11748;50.844;4.396;2023-04-06T08:55:17;10.80;99.90
23160;DHT22;11748;50.844;4.396;2023-04-06T08:57:43;10.80;99.90
23160;DHT22;11748;50.844;4.396;2023-04-06T09:00:11;10.90;99.90
23160;DHT22;11748;50.844;4.396;2023-04-06T09:02:43;10.90;99.90
23160;DHT22;11748;50.844;4.396;2023-04-06T09:05:10;10.90;99.90
23160;DHT22;11748;50.844;4.396;2023-04-06T09:07:36;10.90;99.90
23160;DHT22;11748;50.844;4.396;2023-04-06T09:10:04;11.00;99.90
23160;DHT22;11748;50.844;4.396;2023-04-06T09:12:31;11.00;99.90
23160;DHT22;11748;50.844;4.396;2023-04-06T09:14:58;11.00;99.90
23160;DHT22;11748;50.844;4.396;2023-04-06T09:17:29;11.10;99.90
23160;DHT22;11748;50.844;4.396;2023-04-06T09:19:56;11.20;99.90
23160;DHT22;11748;50.844;4.396;2023-04-06T09:22:21;11.20;99.90
23160;DHT22;11748;50.844;4.396;2023-04-06T09:24:52;11.20;99.90
23160;DHT22;11748;50.844;4.396;2023-04-06T09:27:29;11.30;99.90
23160;DHT22;11748;50.844;4.396;2023-04-06T09:30:16;11.30;99.90
23160;DHT22;11748;50.844;4.396;2023-04-06T09:32:50;11.30;99.90
23160;DHT22;11748;50.844;4.396;2023-04-06T09:35:17;11.40;99.90
23160;DHT22;11748;50.844;4.396;2023-04-06T09:37:43;11.30;99.90
23160;DHT22;11748;50.844;4.396;2023-04-06T09:40:10;11.40;99.90
23160;DHT22;11748;50.844;4.396;2023-04-06T09:42:36;11.30;99.90
23160;DHT22;11748;50.844;4.396;2023-04-06T09:45:02;11.20;99.90
23160;DHT22;11748;50.844;4.396;2023-04-06T09:47:30;11.20;99.90
23160;DHT22;11748;50.844;4.396;2023-04-06T09:49:57;11.20;99.90
23160;DHT22;11748;50.844;4.396;2023-04-06T09:52:37;11.20;99.90
23160;DHT22;11748;50.844;4.396;2023-04-06T09:55:05;11.00;99.90
23160;DHT22;11748;50.844;4.396;2023-04-06T10:00:06;11.10;99.90
23160;DHT22;11748;50.844;4.396;2023-04-06T10:02:59;10.90;99.90
23160;DHT22;11748;50.844;4.396;2023-04-06T10:05:47;11.10;99.90
23160;DHT22;11748;50.844;4.396;2023-04-06T10:08:16;11.10;99.90
23160;DHT22;11748;50.844;4.396;2023-04-06T10:10:43;11.10;99.90
23160;DHT22;11748;50.844;4.396;2023-04-06T10:13:11;11.10;99.90
23160;DHT22;11748;50.844;4.396;2023-04-06T10:15:44;11.20;99.90
23160;DHT22;11748;50.844;4.396;2023-04-06T10:18:10;11.20;99.90
23160;DHT22;11748;50.844;4.396;2023-04-06T10:20:51;11.30;99.90
23160;DHT22;11748;50.844;4.396;2023-04-06T10:23:35;11.40;99.90
23160;DHT22;11748;50.844;4.396;2023-04-06T10:26:02;11.40;99.90
23160;DHT22;11748;50.844;4.396;2023-04-06T10:28:33;11.40;99.90
23160;DHT22;11748;50.844;4.396;2023-04-06T10:31:05;11.40;99.90
23160;DHT22;11748;50.844;4.396;2023-04-06T10:33:31;11.50;99.90
23160;DHT22;11748;50.844;4.396;2023-04-06T10:35:57;11.50;99.90
23160;DHT22;11748;50.844;4.396;2023-04-06T10:38:34;11.60;99.90
23160;DHT22;11748;50.844;4.396;2023-04-06T10:41:10;11.60;99.90
23160;DHT22;11748;50.844;4.396;2023-04-06T10:43:38;11.60;99.90
23160;DHT22;11748;50.844;4.396;2023-04-06T10:46:06;11.70;99.90
23160;DHT22;11748;50.844;4.396;2023-04-06T10:48:39;11.70;99.90
23160;DHT22;11748;50.844;4.396;2023-04-06T10:51:16;11.80;99.90
23160;DHT22;11748;50.844;4.396;2023-04-06T10:53:43;11.50;99.90
23160;DHT22;11748;50.844;4.396;2023-04-06T10:56:11;11.50;99.90
23160;DHT22;11748;50.844;4.396;2023-04-06T10:58:38;11.50;99.90
23160;DHT22;11748;50.844;4.396;2023-04-06T11:01:03;11.60;99.90
23160;DHT22;11748;50.844;4.396;2023-04-06T11:03:31;11.60;99.90
23160;DHT22;11748;50.844;4.396;2023-04-06T11:05:57;11.70;99.90
23160;DHT22;11748;50.844;4.396;2023-04-06T11:08:33;11.70;99.90
23160;DHT22;11748;50.844;4.396;2023-04-06T11:13:43;11.80;99.90
23160;DHT22;11748;50.844;4.396;2023-04-06T11:18:55;11.90;99.90
23160;DHT22;11748;50.844;4.396;2023-04-06T11:21:38;12.00;99.90
23160;DHT22;11748;50.844;4.396;2023-04-06T11:24:10;12.20;99.90
23160;DHT22;11748;50.844;4.396;2023-04-06T11:26:45;12.10;99.90
23160;DHT22;11748;50.844;4.396;2023-04-06T11:29:16;12.20;99.90
23160;DHT22;11748;50.844;4.396;2023-04-06T11:31:45;12.40;99.90
23160;DHT22;11748;50.844;4.396;2023-04-06T11:34:13;12.40;99.90
23160;DHT22;11748;50.844;4.396;2023-04-06T11:36:43;12.40;99.90
23160;DHT22;11748;50.844;4.396;2023-04-06T11:39:10;12.30;99.90
23160;DHT22;11748;50.844;4.396;2023-04-06T11:41:36;12.20;99.90
23160;DHT22;11748;50.844;4.396;2023-04-06T11:44:02;12.20;99.90
23160;DHT22;11748;50.844;4.396;2023-04-06T11:46:28;12.30;99.90
23160;DHT22;11748;50.844;4.396;2023-04-06T11:48:58;12.50;99.90
23160;DHT22;11748;50.844;4.396;2023-04-06T11:51:26;12.50;99.90
23160;DHT22;11748;50.844;4.396;2023-04-06T11:53:55;12.50;99.90
23160;DHT22;11748;50.844;4.396;2023-04-06T11:56:29;12.70;99.90
23160;DHT22;11748;50.844;4.396;2023-04-06T11:58:58;12.70;99.90
23160;DHT22;11748;50.844;4.396;2023-04-06T12:01:25;12.60;99.90
23160;DHT22;11748;50.844;4.396;2023-04-06T12:03:52;12.50;99.90
23160;DHT22;11748;50.844;4.396;2023-04-06T12:06:18;12.40;99.90
23160;DHT22;11748;50.844;4.396;2023-04-06T12:08:44;12.30;99.90
23160;DHT22;11748;50.844;4.396;2023-04-06T12:11:12;12.40;99.90
23160;DHT22;11748;50.844;4.396;2023-04-06T12:13:38;12.50;99.90
23160;DHT22;11748;50.844;4.396;2023-04-06T12:16:04;12.50;99.90
23160;DHT22;11748;50.844;4.396;2023-04-06T12:18:31;12.60;99.90
23160;DHT22;11748;50.844;4.396;2023-04-06T12:20:56;12.60;99.90
23160;DHT22;11748;50.844;4.396;2023-04-06T12:23:22;12.50;99.90
23160;DHT22;11748;50.844;4.396;2023-04-06T12:25:48;12.50;99.90
23160;DHT22;11748;50.844;4.396;2023-04-06T12:28:14;12.30;99.90
23160;DHT22;11748;50.844;4.396;2023-04-06T12:30:39;12.40;99.90
23160;DHT22;11748;50.844;4.396;2023-04-06T12:33:06;12.40;99.90
23160;DHT22;11748;50.844;4.396;2023-04-06T12:35:37;12.50;99.90
23160;DHT22;11748;50.844;4.396;2023-04-06T12:38:02;12.50;99.90
23160;DHT22;11748;50.844;4.396;2023-04-06T12:40:28;12.40;99.90
23160;DHT22;11748;50.844;4.396;2023-04-06T12:42:54;12.50;99.90
23160;DHT22;11748;50.844;4.396;2023-04-06T12:45:20;12.30;99.90
23160;DHT22;11748;50.844;4.396;2023-04-06T12:47:46;12.20;99.90
23160;DHT22;11748;50.844;4.396;2023-04-06T12:50:12;12.10;99.90
23160;DHT22;11748;50.844;4.396;2023-04-06T12:52:37;11.80;99.90
23160;DHT22;11748;50.844;4.396;2023-04-06T12:55:03;11.80;99.90
23160;DHT22;11748;50.844;4.396;2023-04-06T12:57:30;11.70;99.90
23160;DHT22;11748;50.844;4.396;2023-04-06T12:59:57;11.70;99.90
23160;DHT22;11748;50.844;4.396;2023-04-06T13:02:22;11.50;99.90
23160;DHT22;11748;50.844;4.396;2023-04-06T13:04:49;11.40;99.90
23160;DHT22;11748;50.844;4.396;2023-04-06T13:07:15;11.40;99.90
23160;DHT22;11748;50.844;4.396;2023-04-06T13:09:41;11.30;99.90
23160;DHT22;11748;50.844;4.396;2023-04-06T13:12:06;11.30;99.90
23160;DHT22;11748;50.844;4.396;2023-04-06T13:14:32;11.20;99.90
23160;DHT22;11748;50.844;4.396;2023-04-06T13:16:58;11.20;99.90
23160;DHT22;11748;50.844;4.396;2023-04-06T13:19:24;11.20;99.90
23160;DHT22;11748;50.844;4.396;2023-04-06T13:21:50;11.20;99.90
23160;DHT22;11748;50.844;4.396;2023-04-06T13:24:16;11.30;99.90
23160;DHT22;11748;50.844;4.396;2023-04-06T13:26:42;11.30;99.90
23160;DHT22;11748;50.844;4.396;2023-04-06T13:29:08;11.30;99.90
23160;DHT22;11748;50.844;4.396;2023-04-06T13:31:33;11.30;99.90
23160;DHT22;11748;50.844;4.396;2023-04-06T13:33:59;11.40;99.90
23160;DHT22;11748;50.844;4.396;2023-04-06T13:36:25;11.40;99.90
23160;DHT22;11748;50.844;4.396;2023-04-06T13:38:52;11.40;99.90
23160;DHT22;11748;50.844;4.396;2023-04-06T13:41:22;11.50;99.90
23160;DHT22;11748;50.844;4.396;2023-04-06T13:43:48;11.60;99.90
23160;DHT22;11748;50.844;4.396;2023-04-06T13:46:14;11.70;99.90
23160;DHT22;11748;50.844;4.396;2023-04-06T13:48:41;11.70;99.90
23160;DHT22;11748;50.844;4.396;2023-04-06T13:51:11;11.80;99.90
23160;DHT22;11748;50.844;4.396;2023-04-06T13:53:37;11.80;99.90
23160;DHT22;11748;50.844;4.396;2023-04-06T13:56:03;11.90;99.90
23160;DHT22;11748;50.844;4.396;2023-04-06T13:58:28;11.90;99.90
23160;DHT22;11748;50.844;4.396;2023-04-06T14:00:55;11.90;99.90
23160;DHT22;11748;50.844;4.396;2023-04-06T14:03:22;11.90;99.90
23160;DHT22;11748;50.844;4.396;2023-04-06T14:05:47;11.70;99.90
23160;DHT22;11748;50.844;4.396;2023-04-06T14:08:13;11.70;99.90
23160;DHT22;11748;50.844;4.396;2023-04-06T14:10:40;11.70;99.90
23160;DHT22;11748;50.844;4.396;2023-04-06T14:13:06;11.60;99.90
23160;DHT22;11748;50.844;4.396;2023-04-06T14:15:32;11.50;99.90
23160;DHT22;11748;50.844;4.396;2023-04-06T14:17:58;11.60;99.90
23160;DHT22;11748;50.844;4.396;2023-04-06T14:20:23;11.60;99.90
23160;DHT22;11748;50.844;4.396;2023-04-06T14:22:49;11.60;99.90
23160;DHT22;11748;50.844;4.396;2023-04-06T14:25:16;11.60;99.90
23160;DHT22;11748;50.844;4.396;2023-04-06T14:27:43;11.50;99.90
23160;DHT22;11748;50.844;4.396;2023-04-06T14:30:09;11.40;99.90
23160;DHT22;11748;50.844;4.396;2023-04-06T14:32:36;11.50;99.90
23160;DHT22;11748;50.844;4.396;2023-04-06T14:35:03;11.60;99.90
23160;DHT22;11748;50.844;4.396;2023-04-06T14:37:29;11.70;99.90
23160;DHT22;11748;50.844;4.396;2023-04-06T14:39:55;11.70;99.90
23160;DHT22;11748;50.844;4.396;2023-04-06T14:42:21;11.70;99.90
23160;DHT22;11748;50.844;4.396;2023-04-06T14:44:47;11.70;99.90
23160;DHT22;11748;50.844;4.396;2023-04-06T14:47:14;11.00;99.90
23160;DHT22;11748;50.844;4.396;2023-04-06T14:49:46;10.80;99.90
23160;DHT22;11748;50.844;4.396;2023-04-06T14:52:12;11.10;99.90
23160;DHT22;11748;50.844;4.396;2023-04-06T14:54:38;11.40;99.90
23160;DHT22;11748;50.844;4.396;2023-04-06T14:57:03;11.60;99.90
23160;DHT22;11748;50.844;4.396;2023-04-06T14:59:29;11.40;99.90
23160;DHT22;11748;50.844;4.396;2023-04-06T15:01:55;10.90;99.90
23160;DHT22;11748;50.844;4.396;2023-04-06T15:04:21;10.60;99.90
23160;DHT22;11748;50.844;4.396;2023-04-06T15:06:48;10.80;99.90
23160;DHT22;11748;50.844;4.396;2023-04-06T15:09:13;11.10;99.90
23160;DHT22;11748;50.844;4.396;2023-04-06T15:11:39;11.40;99.90
23160;DHT22;11748;50.844;4.396;2023-04-06T15:14:06;11.50;99.90
23160;DHT22;11748;50.844;4.396;2023-04-06T15:16:31;11.40;99.90
23160;DHT22;11748;50.844;4.396;2023-04-06T15:18:58;11.10;99.90
23160;DHT22;11748;50.844;4.396;2023-04-06T15:21:24;11.30;99.90
23160;DHT22;11748;50.844;4.396;2023-04-06T15:23:50;11.60;99.90
23160;DHT22;11748;50.844;4.396;2023-04-06T15:26:16;11.80;99.90
23160;DHT22;11748;50.844;4.396;2023-04-06T15:28:42;12.00;99.90
23160;DHT22;11748;50.844;4.396;2023-04-06T15:31:19;12.10;99.90
23160;DHT22;11748;50.844;4.396;2023-04-06T15:33:48;12.10;99.90
23160;DHT22;11748;50.844;4.396;2023-04-06T15:36:31;12.20;99.90
23160;DHT22;11748;50.844;4.396;2023-04-06T15:38:58;12.50;99.90